Millboro, Virginia
Current Conditions -  °F | °C
As of 11:15 AM on Saturday 25 Oct 2014 (Local Time) from KHSP Reporting Station
Clear Clear  
Wind Chill: 10°   Ceiling: Unl
Heat Index: 10°   Visibility: 10mi
Dew Point:   Wind: 9mph
Humidity: 60%   Direction: 280°W
Pressure: 30"   Gusts: NA
Location:  37.98°N, 79.6°W
Report Text: KHSP 251515Z AUTO 28008KT 10SM CLR 10/03 A3000 RMK AO2 T01030029
Loading
Personal Weather Stations






























Interactive Weather Map
Tropical Storm Tracking
New forecast layout! Learn more

10-Day Weather Forecast

Advertisements
Track Severe Weather on mobile